sensor_id;sensor_type;location;lat;lon;timestamp;temperature;humidity
32522;DHT22;18963;51.504;5.316;2023-03-03T00:01:53;0.90;99.90
32522;DHT22;18963;51.504;5.316;2023-03-03T00:04:19;0.80;99.90
32522;DHT22;18963;51.504;5.316;2023-03-03T00:06:44;0.70;99.90
32522;DHT22;18963;51.504;5.316;2023-03-03T00:09:10;0.70;99.90
32522;DHT22;18963;51.504;5.316;2023-03-03T00:11:35;0.70;99.90
32522;DHT22;18963;51.504;5.316;2023-03-03T00:14:01;0.70;99.90
32522;DHT22;18963;51.504;5.316;2023-03-03T00:16:38;0.70;99.90
32522;DHT22;18963;51.504;5.316;2023-03-03T00:19:14;0.80;99.90
32522;DHT22;18963;51.504;5.316;2023-03-03T00:21:42;0.90;99.90
32522;DHT22;18963;51.504;5.316;2023-03-03T00:26:42;1.00;99.90
32522;DHT22;18963;51.504;5.316;2023-03-03T00:31:46;1.20;99.90
32522;DHT22;18963;51.504;5.316;2023-03-03T00:36:44;1.30;99.90
32522;DHT22;18963;51.504;5.316;2023-03-03T00:39:22;1.30;99.90
32522;DHT22;18963;51.504;5.316;2023-03-03T00:41:50;1.30;99.90
32522;DHT22;18963;51.504;5.316;2023-03-03T00:49:44;1.40;99.90
32522;DHT22;18963;51.504;5.316;2023-03-03T00:52:11;1.50;99.90
32522;DHT22;18963;51.504;5.316;2023-03-03T00:54:38;1.50;99.90
32522;DHT22;18963;51.504;5.316;2023-03-03T00:57:03;1.60;99.90
32522;DHT22;18963;51.504;5.316;2023-03-03T00:59:29;1.60;99.90
32522;DHT22;18963;51.504;5.316;2023-03-03T01:01:54;1.60;99.90
32522;DHT22;18963;51.504;5.316;2023-03-03T01:04:19;1.60;99.90
32522;DHT22;18963;51.504;5.316;2023-03-03T01:06:45;1.60;99.90
32522;DHT22;18963;51.504;5.316;2023-03-03T01:09:12;1.60;99.90
32522;DHT22;18963;51.504;5.316;2023-03-03T01:11:37;1.60;99.90
32522;DHT22;18963;51.504;5.316;2023-03-03T01:14:02;1.60;99.90
32522;DHT22;18963;51.504;5.316;2023-03-03T01:16:28;1.50;99.90
32522;DHT22;18963;51.504;5.316;2023-03-03T01:18:54;1.50;99.90
32522;DHT22;18963;51.504;5.316;2023-03-03T01:21:19;1.50;99.90
32522;DHT22;18963;51.504;5.316;2023-03-03T01:23:44;1.50;99.90
32522;DHT22;18963;51.504;5.316;2023-03-03T01:26:10;1.50;99.90
32522;DHT22;18963;51.504;5.316;2023-03-03T01:28:35;1.50;99.90
32522;DHT22;18963;51.504;5.316;2023-03-03T01:31:01;1.40;99.90
32522;DHT22;18963;51.504;5.316;2023-03-03T01:33:28;1.40;99.90
32522;DHT22;18963;51.504;5.316;2023-03-03T01:35:53;1.50;99.90
32522;DHT22;18963;51.504;5.316;2023-03-03T01:38:19;1.50;99.90
32522;DHT22;18963;51.504;5.316;2023-03-03T01:40:50;1.40;99.90
32522;DHT22;18963;51.504;5.316;2023-03-03T01:43:16;1.40;99.90
32522;DHT22;18963;51.504;5.316;2023-03-03T01:45:44;1.50;99.90
32522;DHT22;18963;51.504;5.316;2023-03-03T01:48:30;1.50;99.90
32522;DHT22;18963;51.504;5.316;2023-03-03T01:51:01;1.50;99.90
32522;DHT22;18963;51.504;5.316;2023-03-03T01:53:38;1.40;99.90
32522;DHT22;18963;51.504;5.316;2023-03-03T01:56:06;1.50;99.90
32522;DHT22;18963;51.504;5.316;2023-03-03T01:58:39;1.50;99.90
32522;DHT22;18963;51.504;5.316;2023-03-03T02:01:16;1.50;99.90
32522;DHT22;18963;51.504;5.316;2023-03-03T02:03:43;1.50;99.90
32522;DHT22;18963;51.504;5.316;2023-03-03T02:06:10;1.50;99.90
32522;DHT22;18963;51.504;5.316;2023-03-03T02:08:38;1.50;99.90
32522;DHT22;18963;51.504;5.316;2023-03-03T02:11:06;1.50;99.90
32522;DHT22;18963;51.504;5.316;2023-03-03T02:13:32;1.50;99.90
32522;DHT22;18963;51.504;5.316;2023-03-03T02:15:58;1.50;99.90
32522;DHT22;18963;51.504;5.316;2023-03-03T02:18:24;1.50;99.90
32522;DHT22;18963;51.504;5.316;2023-03-03T02:26:08;1.50;99.90
32522;DHT22;18963;51.504;5.316;2023-03-03T02:28:35;1.50;99.90
32522;DHT22;18963;51.504;5.316;2023-03-03T02:31:01;1.50;99.90
32522;DHT22;18963;51.504;5.316;2023-03-03T02:33:27;1.40;99.90
32522;DHT22;18963;51.504;5.316;2023-03-03T02:35:53;1.40;99.90
32522;DHT22;18963;51.504;5.316;2023-03-03T02:38:29;1.50;99.90
32522;DHT22;18963;51.504;5.316;2023-03-03T02:43:25;1.50;99.90
32522;DHT22;18963;51.504;5.316;2023-03-03T02:45:54;1.40;99.90
32522;DHT22;18963;51.504;5.316;2023-03-03T02:48:19;1.40;99.90
32522;DHT22;18963;51.504;5.316;2023-03-03T02:50:44;1.40;99.90
32522;DHT22;18963;51.504;5.316;2023-03-03T02:53:10;1.30;99.90
32522;DHT22;18963;51.504;5.316;2023-03-03T02:55:35;1.40;99.90
32522;DHT22;18963;51.504;5.316;2023-03-03T02:58:01;1.30;99.90
32522;DHT22;18963;51.504;5.316;2023-03-03T03:00:26;1.30;99.90
32522;DHT22;18963;51.504;5.316;2023-03-03T03:02:52;1.30;99.90
32522;DHT22;18963;51.504;5.316;2023-03-03T03:05:17;1.30;99.90
32522;DHT22;18963;51.504;5.316;2023-03-03T03:07:43;1.30;99.90
32522;DHT22;18963;51.504;5.316;2023-03-03T03:10:08;1.20;99.90
32522;DHT22;18963;51.504;5.316;2023-03-03T03:12:34;1.20;99.90
32522;DHT22;18963;51.504;5.316;2023-03-03T03:15:00;1.10;99.90
32522;DHT22;18963;51.504;5.316;2023-03-03T03:17:25;1.10;99.90
32522;DHT22;18963;51.504;5.316;2023-03-03T03:19:50;1.00;99.90
32522;DHT22;18963;51.504;5.316;2023-03-03T03:22:16;1.00;99.90
32522;DHT22;18963;51.504;5.316;2023-03-03T03:24:42;1.10;99.90
32522;DHT22;18963;51.504;5.316;2023-03-03T03:27:08;1.00;99.90
32522;DHT22;18963;51.504;5.316;2023-03-03T03:29:33;1.00;99.90
32522;DHT22;18963;51.504;5.316;2023-03-03T03:31:59;1.00;99.90
32522;DHT22;18963;51.504;5.316;2023-03-03T03:34:24;1.00;99.90
32522;DHT22;18963;51.504;5.316;2023-03-03T03:36:50;1.00;99.90
32522;DHT22;18963;51.504;5.316;2023-03-03T03:39:15;1.00;99.90
32522;DHT22;18963;51.504;5.316;2023-03-03T03:41:41;1.00;99.90
32522;DHT22;18963;51.504;5.316;2023-03-03T03:44:06;1.10;99.90
32522;DHT22;18963;51.504;5.316;2023-03-03T03:46:31;1.10;99.90
32522;DHT22;18963;51.504;5.316;2023-03-03T03:48:57;1.10;99.90
32522;DHT22;18963;51.504;5.316;2023-03-03T03:51:22;1.10;99.90
32522;DHT22;18963;51.504;5.316;2023-03-03T03:53:48;1.00;99.90
32522;DHT22;18963;51.504;5.316;2023-03-03T03:56:13;1.10;99.90
32522;DHT22;18963;51.504;5.316;2023-03-03T03:58:40;1.10;99.90
32522;DHT22;18963;51.504;5.316;2023-03-03T04:01:06;1.10;99.90
32522;DHT22;18963;51.504;5.316;2023-03-03T04:03:35;1.10;99.90
32522;DHT22;18963;51.504;5.316;2023-03-03T04:06:00;1.10;99.90
32522;DHT22;18963;51.504;5.316;2023-03-03T04:08:26;1.10;99.90
32522;DHT22;18963;51.504;5.316;2023-03-03T04:10:51;1.10;99.90
32522;DHT22;18963;51.504;5.316;2023-03-03T04:13:17;1.10;99.90
32522;DHT22;18963;51.504;5.316;2023-03-03T04:15:42;1.20;99.90
32522;DHT22;18963;51.504;5.316;2023-03-03T04:18:08;1.10;99.90
32522;DHT22;18963;51.504;5.316;2023-03-03T04:20:33;1.10;99.90
32522;DHT22;18963;51.504;5.316;2023-03-03T04:22:59;1.10;99.90
32522;DHT22;18963;51.504;5.316;2023-03-03T04:25:24;1.10;99.90
32522;DHT22;18963;51.504;5.316;2023-03-03T04:27:50;1.10;99.90
32522;DHT22;18963;51.504;5.316;2023-03-03T04:30:17;1.00;99.90
32522;DHT22;18963;51.504;5.316;2023-03-03T04:32:42;1.00;99.90
32522;DHT22;18963;51.504;5.316;2023-03-03T04:35:08;1.00;99.90
32522;DHT22;18963;51.504;5.316;2023-03-03T04:37:34;0.90;99.90
32522;DHT22;18963;51.504;5.316;2023-03-03T04:40:00;1.00;99.90
32522;DHT22;18963;51.504;5.316;2023-03-03T04:42:26;1.00;99.90
32522;DHT22;18963;51.504;5.316;2023-03-03T04:44:52;1.00;99.90
32522;DHT22;18963;51.504;5.316;2023-03-03T04:47:17;1.00;99.90
32522;DHT22;18963;51.504;5.316;2023-03-03T04:49:43;1.00;99.90
32522;DHT22;18963;51.504;5.316;2023-03-03T04:52:08;1.00;99.90
32522;DHT22;18963;51.504;5.316;2023-03-03T04:54:34;0.90;99.90
32522;DHT22;18963;51.504;5.316;2023-03-03T04:56:59;1.00;99.90
32522;DHT22;18963;51.504;5.316;2023-03-03T04:59:25;1.00;99.90
32522;DHT22;18963;51.504;5.316;2023-03-03T05:01:50;1.00;99.90
32522;DHT22;18963;51.504;5.316;2023-03-03T05:04:16;1.00;99.90
32522;DHT22;18963;51.504;5.316;2023-03-03T05:06:41;1.00;99.90
32522;DHT22;18963;51.504;5.316;2023-03-03T05:09:07;1.00;99.90
32522;DHT22;18963;51.504;5.316;2023-03-03T05:11:33;1.10;99.90
32522;DHT22;18963;51.504;5.316;2023-03-03T05:13:59;1.10;99.90
32522;DHT22;18963;51.504;5.316;2023-03-03T05:16:25;1.10;99.90
32522;DHT22;18963;51.504;5.316;2023-03-03T05:18:50;1.20;99.90
32522;DHT22;18963;51.504;5.316;2023-03-03T05:21:16;1.20;99.90
32522;DHT22;18963;51.504;5.316;2023-03-03T05:23:41;1.20;99.90
32522;DHT22;18963;51.504;5.316;2023-03-03T05:26:07;1.20;99.90
32522;DHT22;18963;51.504;5.316;2023-03-03T05:28:32;1.20;99.90
32522;DHT22;18963;51.504;5.316;2023-03-03T05:30:58;1.20;99.90
32522;DHT22;18963;51.504;5.316;2023-03-03T05:33:23;1.20;99.90
32522;DHT22;18963;51.504;5.316;2023-03-03T05:35:52;1.30;99.90
32522;DHT22;18963;51.504;5.316;2023-03-03T05:38:18;1.30;99.90
32522;DHT22;18963;51.504;5.316;2023-03-03T05:40:43;1.30;99.90
32522;DHT22;18963;51.504;5.316;2023-03-03T05:43:09;1.30;99.90
32522;DHT22;18963;51.504;5.316;2023-03-03T05:45:34;1.40;99.90
32522;DHT22;18963;51.504;5.316;2023-03-03T05:48:00;1.40;99.90
32522;DHT22;18963;51.504;5.316;2023-03-03T05:50:25;1.40;99.90
32522;DHT22;18963;51.504;5.316;2023-03-03T05:52:51;1.40;99.90
32522;DHT22;18963;51.504;5.316;2023-03-03T05:55:17;1.40;99.90
32522;DHT22;18963;51.504;5.316;2023-03-03T05:57:42;1.40;99.90
32522;DHT22;18963;51.504;5.316;2023-03-03T06:00:08;1.40;99.90
32522;DHT22;18963;51.504;5.316;2023-03-03T06:02:34;1.40;99.90
32522;DHT22;18963;51.504;5.316;2023-03-03T06:05:00;1.40;99.90
32522;DHT22;18963;51.504;5.316;2023-03-03T06:07:25;1.40;99.90
32522;DHT22;18963;51.504;5.316;2023-03-03T06:09:51;1.50;99.90
32522;DHT22;18963;51.504;5.316;2023-03-03T06:12:16;1.50;99.90
32522;DHT22;18963;51.504;5.316;2023-03-03T06:14:42;1.40;99.90
32522;DHT22;18963;51.504;5.316;2023-03-03T06:17:07;1.50;99.90
32522;DHT22;18963;51.504;5.316;2023-03-03T06:19:33;1.50;99.90
32522;DHT22;18963;51.504;5.316;2023-03-03T06:21:58;1.50;99.90
32522;DHT22;18963;51.504;5.316;2023-03-03T06:24:23;1.50;99.90
32522;DHT22;18963;51.504;5.316;2023-03-03T06:26:50;1.50;99.90
32522;DHT22;18963;51.504;5.316;2023-03-03T06:29:16;1.50;99.90
32522;DHT22;18963;51.504;5.316;2023-03-03T06:31:42;1.50;99.90
32522;DHT22;18963;51.504;5.316;2023-03-03T06:34:07;1.50;99.90
32522;DHT22;18963;51.504;5.316;2023-03-03T06:36:33;1.50;99.90
32522;DHT22;18963;51.504;5.316;2023-03-03T06:38:58;1.50;99.90
32522;DHT22;18963;51.504;5.316;2023-03-03T06:41:25;1.60;99.90
32522;DHT22;18963;51.504;5.316;2023-03-03T06:43:51;1.60;99.90
32522;DHT22;18963;51.504;5.316;2023-03-03T06:46:16;1.60;99.90
32522;DHT22;18963;51.504;5.316;2023-03-03T06:48:41;1.60;99.90
32522;DHT22;18963;51.504;5.316;2023-03-03T06:54:10;1.70;99.90
32522;DHT22;18963;51.504;5.316;2023-03-03T06:56:37;1.70;99.90
32522;DHT22;18963;51.504;5.316;2023-03-03T06:59:05;1.70;99.90
32522;DHT22;18963;51.504;5.316;2023-03-03T07:01:35;1.70;99.90
32522;DHT22;18963;51.504;5.316;2023-03-03T07:04:06;1.70;99.90
32522;DHT22;18963;51.504;5.316;2023-03-03T07:06:34;1.70;99.90
32522;DHT22;18963;51.504;5.316;2023-03-03T07:09:00;1.80;99.90
32522;DHT22;18963;51.504;5.316;2023-03-03T07:11:25;1.80;99.90
32522;DHT22;18963;51.504;5.316;2023-03-03T07:13:51;1.80;99.90
32522;DHT22;18963;51.504;5.316;2023-03-03T07:16:17;1.80;99.90
32522;DHT22;18963;51.504;5.316;2023-03-03T07:18:54;1.90;99.90
32522;DHT22;18963;51.504;5.316;2023-03-03T07:21:33;1.90;99.90
32522;DHT22;18963;51.504;5.316;2023-03-03T07:23:59;1.90;99.90
32522;DHT22;18963;51.504;5.316;2023-03-03T07:26:29;2.00;99.90
32522;DHT22;18963;51.504;5.316;2023-03-03T07:28:58;2.00;99.90
32522;DHT22;18963;51.504;5.316;2023-03-03T07:31:27;2.00;99.90
32522;DHT22;18963;51.504;5.316;2023-03-03T07:33:54;2.10;99.90
32522;DHT22;18963;51.504;5.316;2023-03-03T07:36:25;2.00;99.90
32522;DHT22;18963;51.504;5.316;2023-03-03T07:38:56;2.10;99.90
32522;DHT22;18963;51.504;5.316;2023-03-03T07:41:22;2.10;99.90
32522;DHT22;18963;51.504;5.316;2023-03-03T07:43:48;2.10;99.90
32522;DHT22;18963;51.504;5.316;2023-03-03T07:46:20;2.20;99.90
32522;DHT22;18963;51.504;5.316;2023-03-03T07:48:47;2.20;99.90
32522;DHT22;18963;51.504;5.316;2023-03-03T07:53:52;2.20;99.90
32522;DHT22;18963;51.504;5.316;2023-03-03T07:56:33;2.30;99.90
32522;DHT22;18963;51.504;5.316;2023-03-03T07:59:01;2.30;99.90
32522;DHT22;18963;51.504;5.316;2023-03-03T08:01:36;2.30;99.90
32522;DHT22;18963;51.504;5.316;2023-03-03T08:04:08;2.30;99.90
32522;DHT22;18963;51.504;5.316;2023-03-03T08:07:36;2.40;99.90
32522;DHT22;18963;51.504;5.316;2023-03-03T08:09:35;2.40;99.90
32522;DHT22;18963;51.504;5.316;2023-03-03T08:12:11;2.40;99.90
32522;DHT22;18963;51.504;5.316;2023-03-03T08:14:38;2.50;99.90
32522;DHT22;18963;51.504;5.316;2023-03-03T08:19:38;2.50;99.90
32522;DHT22;18963;51.504;5.316;2023-03-03T08:25:05;2.60;99.90
32522;DHT22;18963;51.504;5.316;2023-03-03T08:27:30;2.70;99.90
32522;DHT22;18963;51.504;5.316;2023-03-03T08:29:56;2.60;99.90
32522;DHT22;18963;51.504;5.316;2023-03-03T08:32:21;2.70;99.90
32522;DHT22;18963;51.504;5.316;2023-03-03T08:34:47;2.80;99.90
32522;DHT22;18963;51.504;5.316;2023-03-03T08:37:12;2.80;99.90
32522;DHT22;18963;51.504;5.316;2023-03-03T08:39:38;2.80;99.90
32522;DHT22;18963;51.504;5.316;2023-03-03T08:42:03;2.90;99.90
32522;DHT22;18963;51.504;5.316;2023-03-03T08:44:29;2.90;99.90
32522;DHT22;18963;51.504;5.316;2023-03-03T08:46:54;3.00;99.90
32522;DHT22;18963;51.504;5.316;2023-03-03T08:49:20;3.00;99.90
32522;DHT22;18963;51.504;5.316;2023-03-03T08:51:45;3.00;99.90
32522;DHT22;18963;51.504;5.316;2023-03-03T08:54:11;3.10;99.90
32522;DHT22;18963;51.504;5.316;2023-03-03T08:56:37;3.10;99.90
32522;DHT22;18963;51.504;5.316;2023-03-03T08:59:03;3.00;99.90
32522;DHT22;18963;51.504;5.316;2023-03-03T09:01:31;3.10;99.90
32522;DHT22;18963;51.504;5.316;2023-03-03T09:03:57;3.10;99.90
32522;DHT22;18963;51.504;5.316;2023-03-03T09:06:22;3.10;99.90
32522;DHT22;18963;51.504;5.316;2023-03-03T09:08:48;3.10;99.90
32522;DHT22;18963;51.504;5.316;2023-03-03T09:11:16;3.10;99.90
32522;DHT22;18963;51.504;5.316;2023-03-03T09:13:43;3.10;99.90
32522;DHT22;18963;51.504;5.316;2023-03-03T09:16:13;3.20;99.90
32522;DHT22;18963;51.504;5.316;2023-03-03T09:18:39;3.30;99.90
32522;DHT22;18963;51.504;5.316;2023-03-03T09:21:15;3.30;99.90
32522;DHT22;18963;51.504;5.316;2023-03-03T09:23:42;3.30;99.90
32522;DHT22;18963;51.504;5.316;2023-03-03T09:26:21;3.30;99.90
32522;DHT22;18963;51.504;5.316;2023-03-03T09:28:46;3.40;99.90
32522;DHT22;18963;51.504;5.316;2023-03-03T09:36:38;3.60;99.90
32522;DHT22;18963;51.504;5.316;2023-03-03T09:39:37;3.60;99.90
32522;DHT22;18963;51.504;5.316;2023-03-03T09:44:26;3.70;99.90
32522;DHT22;18963;51.504;5.316;2023-03-03T10:07:54;4.20;99.90
32522;DHT22;18963;51.504;5.316;2023-03-03T10:10:30;4.20;99.90
32522;DHT22;18963;51.504;5.316;2023-03-03T10:15:45;4.40;99.90
32522;DHT22;18963;51.504;5.316;2023-03-03T10:23:59;4.80;99.90
32522;DHT22;18963;51.504;5.316;2023-03-03T10:26:09;4.80;99.90
32522;DHT22;18963;51.504;5.316;2023-03-03T10:31:18;4.90;99.90
32522;DHT22;18963;51.504;5.316;2023-03-03T10:33:58;4.90;99.90
32522;DHT22;18963;51.504;5.316;2023-03-03T10:46:59;5.00;99.90
32522;DHT22;18963;51.504;5.316;2023-03-03T10:49:46;4.90;99.90
32522;DHT22;18963;51.504;5.316;2023-03-03T10:52:25;4.90;99.90
32522;DHT22;18963;51.504;5.316;2023-03-03T11:10:25;5.60;99.90
32522;DHT22;18963;51.504;5.316;2023-03-03T11:12:53;5.70;99.90
32522;DHT22;18963;51.504;5.316;2023-03-03T11:20:35;6.10;99.90
32522;DHT22;18963;51.504;5.316;2023-03-03T11:33:14;6.50;99.90
32522;DHT22;18963;51.504;5.316;2023-03-03T11:41:02;6.60;99.90
32522;DHT22;18963;51.504;5.316;2023-03-03T11:45:55;6.70;99.90
32522;DHT22;18963;51.504;5.316;2023-03-03T11:48:30;6.80;99.90
32522;DHT22;18963;51.504;5.316;2023-03-03T11:50:59;6.90;99.90
32522;DHT22;18963;51.504;5.316;2023-03-03T11:53:39;6.90;99.90
32522;DHT22;18963;51.504;5.316;2023-03-03T11:58:46;7.00;99.90
32522;DHT22;18963;51.504;5.316;2023-03-03T12:01:28;6.80;99.90
32522;DHT22;18963;51.504;5.316;2023-03-03T12:04:02;6.70;99.90
32522;DHT22;18963;51.504;5.316;2023-03-03T12:09:19;6.90;99.90
32522;DHT22;18963;51.504;5.316;2023-03-03T12:11:49;6.80;99.90
32522;DHT22;18963;51.504;5.316;2023-03-03T12:27:01;9.00;99.90
32522;DHT22;18963;51.504;5.316;2023-03-03T12:29:40;9.00;99.90
32522;DHT22;18963;51.504;5.316;2023-03-03T12:35:00;8.90;99.90
32522;DHT22;18963;51.504;5.316;2023-03-03T12:40:19;8.20;99.90
32522;DHT22;18963;51.504;5.316;2023-03-03T12:42:51;8.20;99.90
32522;DHT22;18963;51.504;5.316;2023-03-03T12:53:04;8.30;99.90
32522;DHT22;18963;51.504;5.316;2023-03-03T13:06:22;7.90;99.90
32522;DHT22;18963;51.504;5.316;2023-03-03T13:09:16;7.70;99.90
32522;DHT22;18963;51.504;5.316;2023-03-03T13:14:32;7.60;99.90
32522;DHT22;18963;51.504;5.316;2023-03-03T13:17:06;7.60;99.90
32522;DHT22;18963;51.504;5.316;2023-03-03T13:22:07;7.40;99.90
32522;DHT22;18963;51.504;5.316;2023-03-03T13:27:19;7.30;99.90
32522;DHT22;18963;51.504;5.316;2023-03-03T13:32:22;7.40;99.90
32522;DHT22;18963;51.504;5.316;2023-03-03T13:37:21;7.50;99.90
32522;DHT22;18963;51.504;5.316;2023-03-03T13:40:02;7.50;99.90
32522;DHT22;18963;51.504;5.316;2023-03-03T13:44:55;7.60;99.90
32522;DHT22;18963;51.504;5.316;2023-03-03T13:49:50;7.70;99.90
32522;DHT22;18963;51.504;5.316;2023-03-03T13:52:22;7.70;99.90
32522;DHT22;18963;51.504;5.316;2023-03-03T13:55:04;7.70;99.90
32522;DHT22;18963;51.504;5.316;2023-03-03T14:10:20;8.30;99.90
32522;DHT22;18963;51.504;5.316;2023-03-03T14:15:52;8.30;99.90
32522;DHT22;18963;51.504;5.316;2023-03-03T14:18:25;8.20;99.90
32522;DHT22;18963;51.504;5.316;2023-03-03T14:20:52;8.30;99.90
32522;DHT22;18963;51.504;5.316;2023-03-03T14:23:20;8.20;99.90
32522;DHT22;18963;51.504;5.316;2023-03-03T14:25:52;8.30;99.90
32522;DHT22;18963;51.504;5.316;2023-03-03T14:28:19;8.40;99.90
32522;DHT22;18963;51.504;5.316;2023-03-03T14:30:45;8.50;99.90
32522;DHT22;18963;51.504;5.316;2023-03-03T14:35:43;8.60;99.90
32522;DHT22;18963;51.504;5.316;2023-03-03T14:38:15;8.60;99.90
32522;DHT22;18963;51.504;5.316;2023-03-03T14:40:42;8.70;99.90
32522;DHT22;18963;51.504;5.316;2023-03-03T14:43:55;8.70;99.90
32522;DHT22;18963;51.504;5.316;2023-03-03T14:45:55;8.70;99.90
32522;DHT22;18963;51.504;5.316;2023-03-03T14:48:21;8.70;99.90
32522;DHT22;18963;51.504;5.316;2023-03-03T14:50:57;8.70;99.90
32522;DHT22;18963;51.504;5.316;2023-03-03T14:55:54;8.70;99.90
32522;DHT22;18963;51.504;5.316;2023-03-03T14:58:27;8.80;99.90
32522;DHT22;18963;51.504;5.316;2023-03-03T15:03:39;8.70;99.90
32522;DHT22;18963;51.504;5.316;2023-03-03T15:06:11;8.70;99.90
32522;DHT22;18963;51.504;5.316;2023-03-03T15:08:40;8.70;99.90
32522;DHT22;18963;51.504;5.316;2023-03-03T15:11:26;8.60;99.90
32522;DHT22;18963;51.504;5.316;2023-03-03T15:13:52;8.50;99.90
32522;DHT22;18963;51.504;5.316;2023-03-03T15:16:30;8.50;99.90
32522;DHT22;18963;51.504;5.316;2023-03-03T15:21:25;8.60;99.90
32522;DHT22;18963;51.504;5.316;2023-03-03T15:26:27;8.60;99.90
32522;DHT22;18963;51.504;5.316;2023-03-03T15:29:07;8.60;99.90
32522;DHT22;18963;51.504;5.316;2023-03-03T15:31:45;8.60;99.90
32522;DHT22;18963;51.504;5.316;2023-03-03T15:36:45;8.20;99.90
32522;DHT22;18963;51.504;5.316;2023-03-03T15:41:39;8.10;99.90
32522;DHT22;18963;51.504;5.316;2023-03-03T15:44:15;7.90;99.90
32522;DHT22;18963;51.504;5.316;2023-03-03T15:52:01;7.70;99.90
32522;DHT22;18963;51.504;5.316;2023-03-03T15:54:45;7.70;99.90
32522;DHT22;18963;51.504;5.316;2023-03-03T15:57:20;7.70;99.90
32522;DHT22;18963;51.504;5.316;2023-03-03T16:00:02;7.70;99.90
32522;DHT22;18963;51.504;5.316;2023-03-03T16:02:48;7.80;99.90
32522;DHT22;18963;51.504;5.316;2023-03-03T16:07:56;7.90;99.90
32522;DHT22;18963;51.504;5.316;2023-03-03T16:13:18;8.10;99.90
32522;DHT22;18963;51.504;5.316;2023-03-03T16:15:47;8.10;99.90
32522;DHT22;18963;51.504;5.316;2023-03-03T16:21:06;8.10;99.90
32522;DHT22;18963;51.504;5.316;2023-03-03T16:23:40;8.10;99.90
32522;DHT22;18963;51.504;5.316;2023-03-03T16:33:43;8.10;99.90
32522;DHT22;18963;51.504;5.316;2023-03-03T16:41:44;8.00;99.90
32522;DHT22;18963;51.504;5.316;2023-03-03T16:44:15;8.00;99.90
32522;DHT22;18963;51.504;5.316;2023-03-03T16:46:46;7.90;99.90
32522;DHT22;18963;51.504;5.316;2023-03-03T16:49:30;7.90;99.90
32522;DHT22;18963;51.504;5.316;2023-03-03T16:54:32;7.70;99.90
32522;DHT22;18963;51.504;5.316;2023-03-03T16:58:01;7.70;99.90
32522;DHT22;18963;51.504;5.316;2023-03-03T16:59:54;7.60;99.90
32522;DHT22;18963;51.504;5.316;2023-03-03T17:10:04;7.30;99.90
32522;DHT22;18963;51.504;5.316;2023-03-03T17:17:58;7.20;99.90
32522;DHT22;18963;51.504;5.316;2023-03-03T17:34:10;7.10;99.90
32522;DHT22;18963;51.504;5.316;2023-03-03T17:39:12;7.00;99.90
32522;DHT22;18963;51.504;5.316;2023-03-03T17:41:46;7.00;99.90
32522;DHT22;18963;51.504;5.316;2023-03-03T17:46:51;6.90;99.90
32522;DHT22;18963;51.504;5.316;2023-03-03T18:08:05;6.60;99.90
32522;DHT22;18963;51.504;5.316;2023-03-03T18:10:36;6.60;99.90
32522;DHT22;18963;51.504;5.316;2023-03-03T18:20:42;6.40;99.90
32522;DHT22;18963;51.504;5.316;2023-03-03T18:23:19;6.40;99.90
32522;DHT22;18963;51.504;5.316;2023-03-03T18:25:57;6.30;99.90
32522;DHT22;18963;51.504;5.316;2023-03-03T18:28:42;6.30;99.90
32522;DHT22;18963;51.504;5.316;2023-03-03T18:31:20;6.30;99.90
32522;DHT22;18963;51.504;5.316;2023-03-03T18:34:00;6.20;99.90
32522;DHT22;18963;51.504;5.316;2023-03-03T18:38:55;6.20;99.90
32522;DHT22;18963;51.504;5.316;2023-03-03T18:41:24;6.10;99.90
32522;DHT22;18963;51.504;5.316;2023-03-03T18:44:00;6.10;99.90
32522;DHT22;18963;51.504;5.316;2023-03-03T18:49:00;6.10;99.90
32522;DHT22;18963;51.504;5.316;2023-03-03T18:59:07;6.00;99.90
32522;DHT22;18963;51.504;5.316;2023-03-03T19:01:42;5.90;99.90
32522;DHT22;18963;51.504;5.316;2023-03-03T19:04:16;5.90;99.90
32522;DHT22;18963;51.504;5.316;2023-03-03T19:09:09;5.90;99.90
32522;DHT22;18963;51.504;5.316;2023-03-03T19:11:39;5.90;99.90
32522;DHT22;18963;51.504;5.316;2023-03-03T19:16:50;5.80;99.90
32522;DHT22;18963;51.504;5.316;2023-03-03T19:19:17;5.90;99.90
32522;DHT22;18963;51.504;5.316;2023-03-03T19:21:44;5.80;99.90
32522;DHT22;18963;51.504;5.316;2023-03-03T19:27:06;5.80;99.90
32522;DHT22;18963;51.504;5.316;2023-03-03T19:42:47;5.80;99.90
32522;DHT22;18963;51.504;5.316;2023-03-03T19:50:27;5.70;99.90
32522;DHT22;18963;51.504;5.316;2023-03-03T19:52:59;5.70;99.90
32522;DHT22;18963;51.504;5.316;2023-03-03T20:09:04;5.70;99.90
32522;DHT22;18963;51.504;5.316;2023-03-03T20:16:30;5.70;99.90
32522;DHT22;18963;51.504;5.316;2023-03-03T20:26:55;5.60;99.90
32522;DHT22;18963;51.504;5.316;2023-03-03T20:29:26;5.60;99.90
32522;DHT22;18963;51.504;5.316;2023-03-03T20:32:02;5.60;99.90
32522;DHT22;18963;51.504;5.316;2023-03-03T20:37:28;5.60;99.90
32522;DHT22;18963;51.504;5.316;2023-03-03T20:45:12;5.70;99.90
32522;DHT22;18963;51.504;5.316;2023-03-03T20:50:23;5.70;99.90
32522;DHT22;18963;51.504;5.316;2023-03-03T20:53:05;5.70;99.90
32522;DHT22;18963;51.504;5.316;2023-03-03T20:55:40;5.70;99.90
32522;DHT22;18963;51.504;5.316;2023-03-03T20:58:15;5.70;99.90
32522;DHT22;18963;51.504;5.316;2023-03-03T21:03:31;5.70;99.90
32522;DHT22;18963;51.504;5.316;2023-03-03T21:05:59;5.70;99.90
32522;DHT22;18963;51.504;5.316;2023-03-03T21:08:39;5.70;99.90
32522;DHT22;18963;51.504;5.316;2023-03-03T21:11:04;5.70;99.90
32522;DHT22;18963;51.504;5.316;2023-03-03T21:16:02;5.70;99.90
32522;DHT22;18963;51.504;5.316;2023-03-03T21:18:28;5.70;99.90
32522;DHT22;18963;51.504;5.316;2023-03-03T21:20:53;5.80;99.90
32522;DHT22;18963;51.504;5.316;2023-03-03T21:23:19;5.70;99.90
32522;DHT22;18963;51.504;5.316;2023-03-03T21:25:49;5.80;99.90
32522;DHT22;18963;51.504;5.316;2023-03-03T21:30:59;5.80;99.90
32522;DHT22;18963;51.504;5.316;2023-03-03T21:36:03;5.70;99.90
32522;DHT22;18963;51.504;5.316;2023-03-03T21:38:31;5.80;99.90
32522;DHT22;18963;51.504;5.316;2023-03-03T21:40:58;5.80;99.90
32522;DHT22;18963;51.504;5.316;2023-03-03T21:45:58;5.70;99.90
32522;DHT22;18963;51.504;5.316;2023-03-03T21:48:24;5.70;99.90
32522;DHT22;18963;51.504;5.316;2023-03-03T21:50:49;5.70;99.90
32522;DHT22;18963;51.504;5.316;2023-03-03T21:53:15;5.70;99.90
32522;DHT22;18963;51.504;5.316;2023-03-03T21:55:40;5.60;99.90
32522;DHT22;18963;51.504;5.316;2023-03-03T21:58:13;5.70;99.90
32522;DHT22;18963;51.504;5.316;2023-03-03T22:00:38;5.60;99.90
32522;DHT22;18963;51.504;5.316;2023-03-03T22:03:04;5.60;99.90
32522;DHT22;18963;51.504;5.316;2023-03-03T22:05:30;5.60;99.90
32522;DHT22;18963;51.504;5.316;2023-03-03T22:07:55;5.60;99.90
32522;DHT22;18963;51.504;5.316;2023-03-03T22:10:21;5.60;99.90
32522;DHT22;18963;51.504;5.316;2023-03-03T22:12:46;5.60;99.90
32522;DHT22;18963;51.504;5.316;2023-03-03T22:15:11;5.60;99.90
32522;DHT22;18963;51.504;5.316;2023-03-03T22:17:37;5.60;99.90
32522;DHT22;18963;51.504;5.316;2023-03-03T22:20:05;5.60;99.90
32522;DHT22;18963;51.504;5.316;2023-03-03T22:22:30;5.60;99.90
32522;DHT22;18963;51.504;5.316;2023-03-03T22:24:56;5.60;99.90
32522;DHT22;18963;51.504;5.316;2023-03-03T22:27:21;5.60;99.90